Maersk Rosario — V2BG2 — position and weather

sailwx.info

Track history (hours):
 
Tides and Currents Weather Stations Pressure Air Temp Water Temp Dewpoint Dewpoint Depression Visibility Wind Speed Wind Dir Waves Ship Positions

Maersk Rosario

Last reported at 2015-Jan-22 12:31 UTC. Time now 2015-Jan-27 10:27 UTC.
Position N 25°53' W 079°51'.

Length 161.1 m; beam 25 m; draft 9.5 m.

Type: Ship (hazmat cat A). MMSI: 304814000.

Date/timePositionNaut miles runAvg speedWind from/ knotsBaromVisibWave heightAir tempDewpointWater temp
2015-Jan-22 12:31N 25°53' W 079°51'1010.7
2015-Jan-22 11:33N 25°60' W 079°59'9 8.9
2015-Jan-22 10:33N 26°05' W 080°07'1 0.9
2015-Jan-22 09:19N 26°04' W 080°07'0 0.0
2015-Jan-22 08:25N 26°04' W 080°07'0 0.0
2015-Jan-22 07:25N 26°04' W 080°07'0 0.0
2015-Jan-22 06:25N 26°04' W 080°07'0 0.0
2015-Jan-22 05:28N 26°04' W 080°07'0 0.0
2015-Jan-22 04:28N 26°04' W 080°07'0 0.0
2015-Jan-22 03:28N 26°04' W 080°07'0 0.0
2015-Jan-22 02:31N 26°04' W 080°07'0 0.0
2015-Jan-22 01:31N 26°04' W 080°07'0 0.0
2015-Jan-22 00:31N 26°04' W 080°07'1 1.3
2015-Jan-21 23:34N 26°06' W 080°07'5 6.7
2015-Jan-21 22:50N 26°07' W 080°02'0 6.4
2015-Jan-21 22:46N 26°07' W 080°02'2 9.1
2015-Jan-21 22:34N 26°09' W 080°01'1716.7
2015-Jan-21 21:34N 26°25' W 079°57'3115.7
2015-Jan-21 19:33N 26°56' W 079°54'46 0.9
2015-Jan-19 16:25N 26°18' W 079°26'1719.4
2015-Jan-19 15:33N 26°01' W 079°25'  
Track history (hours):
 
Tides and Currents Weather Stations Pressure Air Temp Water Temp Dewpoint Dewpoint Depression Visibility Wind Speed Wind Dir Waves Ship Positions

Maersk Rosario

Last reported at 2015-Jan-22 12:31 UTC. Time now 2015-Jan-27 10:27 UTC.
Position N 25°53' W 079°51'.

Length 161.1 m; beam 25 m; draft 9.5 m.

Type: Ship (hazmat cat A). MMSI: 304814000.

Date/timePositionNaut miles runAvg speedWind from/ knotsBaromVisibWave heightAir tempDewpointWater temp
2015-Jan-22 12:31N 25°53' W 079°51'1010.7
2015-Jan-22 11:33N 25°60' W 079°59'9 8.9
2015-Jan-22 10:33N 26°05' W 080°07'1 0.9
2015-Jan-22 09:19N 26°04' W 080°07'0 0.0
2015-Jan-22 08:25N 26°04' W 080°07'0 0.0
2015-Jan-22 07:25N 26°04' W 080°07'0 0.0
2015-Jan-22 06:25N 26°04' W 080°07'0 0.0
2015-Jan-22 05:28N 26°04' W 080°07'0 0.0
2015-Jan-22 04:28N 26°04' W 080°07'0 0.0
2015-Jan-22 03:28N 26°04' W 080°07'0 0.0
2015-Jan-22 02:31N 26°04' W 080°07'0 0.0
2015-Jan-22 01:31N 26°04' W 080°07'0 0.0
2015-Jan-22 00:31N 26°04' W 080°07'1 1.3
2015-Jan-21 23:34N 26°06' W 080°07'5 6.7
2015-Jan-21 22:50N 26°07' W 080°02'0 6.4
2015-Jan-21 22:46N 26°07' W 080°02'2 9.1
2015-Jan-21 22:34N 26°09' W 080°01'1716.7
2015-Jan-21 21:34N 26°25' W 079°57'3115.7
2015-Jan-21 19:33N 26°56' W 079°54'46 0.9
2015-Jan-19 16:25N 26°18' W 079°26'1719.4
2015-Jan-19 15:33N 26°01' W 079°25'  

Dump ship's entire track history